createdAt,value
2018-08-19T00:02:19.945Z,18.74
2018-08-19T00:05:03.069Z,18.72
2018-08-19T00:07:30.317Z,18.70
2018-08-19T00:09:58.119Z,18.68
2018-08-19T00:12:36.202Z,18.60
2018-08-19T00:15:04.578Z,18.63
2018-08-19T00:17:32.045Z,18.65
2018-08-19T00:19:59.345Z,18.67
2018-08-19T00:22:26.641Z,18.58
2018-08-19T00:24:54.021Z,18.62
2018-08-19T00:27:21.703Z,18.57
2018-08-19T00:29:49.860Z,18.61
2018-08-19T00:32:17.142Z,18.59
2018-08-19T00:34:45.754Z,18.55
2018-08-19T00:37:13.123Z,18.58
2018-08-19T00:39:40.760Z,18.60
2018-08-19T00:42:08.165Z,18.59
2018-08-19T00:44:35.645Z,18.54
2018-08-19T00:47:03.263Z,18.50
2018-08-19T00:49:30.552Z,18.43
2018-08-19T00:51:59.001Z,18.48
2018-08-19T00:54:27.592Z,18.43
2018-08-19T00:56:55.875Z,18.45
2018-08-19T00:59:23.462Z,18.44
2018-08-19T01:01:50.796Z,18.40
2018-08-19T01:04:18.212Z,18.37
2018-08-19T01:06:51.423Z,18.39
2018-08-19T01:09:19.425Z,18.35
2018-08-19T01:11:47.452Z,18.33
2018-08-19T01:14:15.480Z,18.30
2018-08-19T01:16:42.852Z,18.32
2018-08-19T01:19:10.985Z,18.35
2018-08-19T01:21:38.442Z,18.28
2018-08-19T01:24:11.334Z,18.30
2018-08-19T01:26:40.858Z,18.28
2018-08-19T01:29:09.620Z,18.28
2018-08-19T01:31:37.415Z,18.24
2018-08-19T01:34:10.136Z,18.23
2018-08-19T01:36:37.793Z,18.23
2018-08-19T01:39:07.133Z,18.13
2018-08-19T01:41:35.749Z,18.14
2018-08-19T01:44:06.790Z,18.16
2018-08-19T01:46:36.398Z,18.13
2018-08-19T01:49:03.800Z,18.13
2018-08-19T01:51:31.524Z,18.12
2018-08-19T01:54:04.360Z,18.10
2018-08-19T01:56:31.765Z,18.12
2018-08-19T01:58:59.835Z,18.16
2018-08-19T02:01:40.926Z,18.09
2018-08-19T02:04:08.505Z,18.08
2018-08-19T02:06:36.035Z,18.04
2018-08-19T02:09:04.608Z,18.10
2018-08-19T02:11:32.322Z,18.07
2018-08-19T02:14:00.420Z,18.05
2018-08-19T02:16:28.085Z,18.01
2018-08-19T02:18:55.723Z,18.00
2018-08-19T02:21:23.615Z,17.98
2018-08-19T02:23:51.141Z,17.98
2018-08-19T02:26:23.772Z,17.98
2018-08-19T02:28:51.385Z,17.99
2018-08-19T02:31:18.623Z,17.98
2018-08-19T02:33:45.927Z,17.92
2018-08-19T02:36:14.124Z,17.93
2018-08-19T02:38:41.679Z,17.95
2018-08-19T02:41:09.018Z,17.85
2018-08-19T02:43:44.111Z,17.84
2018-08-19T02:46:11.536Z,17.87
2018-08-19T02:48:46.745Z,17.84
2018-08-19T02:51:15.344Z,17.84
2018-08-19T02:53:44.600Z,17.81
2018-08-19T02:56:12.622Z,17.86
2018-08-19T02:58:41.301Z,17.81
2018-08-19T03:01:08.840Z,17.77
2018-08-19T03:03:36.446Z,17.78
2018-08-19T03:06:04.417Z,17.77
2018-08-19T03:08:32.084Z,17.77
2018-08-19T03:11:00.471Z,17.80
2018-08-19T03:13:27.877Z,17.79
2018-08-19T03:15:56.264Z,17.77
2018-08-19T03:18:23.932Z,17.76
2018-08-19T03:20:51.289Z,17.79
2018-08-19T03:23:18.626Z,17.75
2018-08-19T03:25:45.917Z,17.75
2018-08-19T03:28:13.245Z,17.76
2018-08-19T03:30:47.046Z,17.71
2018-08-19T03:33:14.357Z,17.65
2018-08-19T03:35:42.393Z,17.71
2018-08-19T03:38:12.919Z,17.70
2018-08-19T03:40:40.237Z,17.71
2018-08-19T03:43:08.081Z,17.63
2018-08-19T03:45:35.331Z,17.62
2018-08-19T03:48:02.657Z,17.58
2018-08-19T03:50:30.079Z,17.58
2018-08-19T03:52:57.393Z,17.59
2018-08-19T03:55:26.951Z,17.65
2018-08-19T03:57:58.124Z,17.60
2018-08-19T04:00:26.664Z,17.71
2018-08-19T04:02:54.143Z,17.58
2018-08-19T04:05:38.451Z,17.65
2018-08-19T04:08:06.729Z,17.55
2018-08-19T04:10:34.108Z,17.58
2018-08-19T04:13:01.400Z,17.54
2018-08-19T04:15:29.343Z,17.58
2018-08-19T04:17:56.605Z,17.58
2018-08-19T04:20:23.946Z,17.59
2018-08-19T04:22:51.237Z,17.56
2018-08-19T04:25:23.085Z,17.53
2018-08-19T04:27:50.479Z,17.54
2018-08-19T04:30:17.859Z,17.49
2018-08-19T04:32:45.146Z,17.47
2018-08-19T04:35:12.904Z,17.55
2018-08-19T04:37:40.202Z,17.47
2018-08-19T04:40:07.621Z,17.52
2018-08-19T04:42:34.936Z,17.53
2018-08-19T04:45:02.237Z,17.47
2018-08-19T04:47:31.445Z,17.53
2018-08-19T04:49:58.863Z,17.54
2018-08-19T04:52:26.287Z,17.48
2018-08-19T04:54:54.968Z,17.46
2018-08-19T04:57:22.667Z,17.46
2018-08-19T04:59:50.076Z,17.44
2018-08-19T05:02:18.226Z,17.56
2018-08-19T05:04:45.467Z,17.57
2018-08-19T05:07:13.445Z,17.46
2018-08-19T05:09:40.987Z,17.49
2018-08-19T05:12:08.475Z,17.49
2018-08-19T05:14:36.007Z,17.55
2018-08-19T05:17:03.266Z,17.59
2018-08-19T05:19:30.594Z,17.60
2018-08-19T05:22:03.861Z,17.58
2018-08-19T05:24:31.996Z,17.60
2018-08-19T05:27:04.249Z,17.64
2018-08-19T05:29:31.773Z,17.65
2018-08-19T05:31:59.084Z,17.63
2018-08-19T05:34:32.838Z,17.65
2018-08-19T05:37:00.571Z,17.73
2018-08-19T05:39:28.527Z,17.79
2018-08-19T05:42:08.956Z,17.76
2018-08-19T05:44:37.652Z,17.71
2018-08-19T05:47:08.968Z,17.66
2018-08-19T05:49:37.710Z,17.76
2018-08-19T05:52:11.085Z,17.79
2018-08-19T05:54:44.555Z,17.80
2018-08-19T05:57:12.245Z,17.83
2018-08-19T05:59:39.697Z,17.80
2018-08-19T06:02:07.016Z,17.84
2018-08-19T06:04:34.816Z,17.91
2018-08-19T06:07:04.706Z,17.96
2018-08-19T06:09:33.008Z,18.06
2018-08-19T06:12:00.986Z,18.01
2018-08-19T06:14:28.562Z,18.08
2018-08-19T06:16:55.897Z,18.12
2018-08-19T06:19:23.227Z,18.13
2018-08-19T06:21:50.890Z,18.14
2018-08-19T06:24:19.487Z,18.12
2018-08-19T06:26:46.810Z,18.12
2018-08-19T06:29:14.115Z,18.18
2018-08-19T06:31:41.419Z,18.38
2018-08-19T06:34:08.720Z,18.28
2018-08-19T06:36:36.240Z,18.40
2018-08-19T06:39:04.397Z,18.43
2018-08-19T06:41:31.957Z,18.37
2018-08-19T06:43:59.271Z,18.27
2018-08-19T06:46:26.553Z,18.22
2018-08-19T06:48:54.067Z,18.41
2018-08-19T06:51:21.370Z,18.41
2018-08-19T06:53:48.656Z,18.38
2018-08-19T06:56:16.066Z,18.35
2018-08-19T06:58:43.309Z,18.46
2018-08-19T07:01:10.746Z,18.44
2018-08-19T07:03:42.880Z,18.34
2018-08-19T07:06:10.824Z,18.31
2018-08-19T07:08:38.099Z,18.27
2018-08-19T07:11:05.558Z,18.30
2018-08-19T07:13:32.845Z,18.34
2018-08-19T07:16:00.340Z,18.28
2018-08-19T07:18:27.587Z,18.29
2018-08-19T07:20:55.002Z,18.17
2018-08-19T07:23:22.365Z,18.19
2018-08-19T07:25:49.631Z,18.24
2018-08-19T07:28:17.638Z,18.22
2018-08-19T07:30:45.289Z,18.08
2018-08-19T07:33:13.110Z,18.11
2018-08-19T07:35:40.514Z,18.16
2018-08-19T07:38:08.502Z,18.15
2018-08-19T07:40:35.807Z,18.24
2018-08-19T07:43:03.061Z,18.15
2018-08-19T07:45:30.696Z,18.19
2018-08-19T07:47:58.100Z,18.28
2018-08-19T07:50:25.723Z,18.30
2018-08-19T07:52:53.602Z,18.37
2018-08-19T07:55:21.022Z,18.32
2018-08-19T07:57:48.530Z,18.34
2018-08-19T08:00:16.928Z,18.47
2018-08-19T08:02:44.286Z,18.35
2018-08-19T08:05:11.590Z,18.48
2018-08-19T08:07:44.757Z,18.43
2018-08-19T08:10:12.073Z,18.47
2018-08-19T08:12:39.444Z,18.53
2018-08-19T08:15:07.126Z,18.48
2018-08-19T08:17:34.694Z,18.48
2018-08-19T08:20:03.044Z,18.52
2018-08-19T08:22:31.121Z,18.57
2018-08-19T08:24:58.632Z,18.51
2018-08-19T08:27:26.248Z,18.52
2018-08-19T08:29:53.705Z,18.53
2018-08-19T08:32:21.761Z,18.56
2018-08-19T08:34:49.520Z,18.64
2018-08-19T08:37:16.972Z,18.92
2018-08-19T08:39:44.348Z,18.84
2018-08-19T08:42:11.988Z,18.94
2018-08-19T08:44:39.279Z,18.93
2018-08-19T08:47:09.342Z,18.89
2018-08-19T08:49:42.254Z,19.03
2018-08-19T08:52:30.154Z,19.11
2018-08-19T08:55:00.092Z,19.28
2018-08-19T08:57:27.456Z,19.38
2018-08-19T08:59:54.966Z,19.39
2018-08-19T09:02:22.497Z,19.44
2018-08-19T09:04:50.958Z,19.38
2018-08-19T09:07:18.550Z,19.54
2018-08-19T09:09:46.557Z,19.45
2018-08-19T09:12:14.503Z,19.44
2018-08-19T09:14:42.569Z,19.55
2018-08-19T09:17:10.254Z,19.67
2018-08-19T09:19:37.899Z,19.84
2018-08-19T09:22:05.406Z,19.84
2018-08-19T09:24:32.721Z,19.84
2018-08-19T09:27:00.066Z,19.96
2018-08-19T09:29:27.542Z,20.07
2018-08-19T09:31:55.225Z,20.10
2018-08-19T09:34:22.821Z,20.01
2018-08-19T09:36:50.386Z,19.95
2018-08-19T09:39:18.432Z,20.18
2018-08-19T09:41:45.934Z,20.38
2018-08-19T09:44:13.340Z,20.40
2018-08-19T09:46:40.793Z,20.41
2018-08-19T09:49:08.515Z,20.46
2018-08-19T09:51:35.881Z,20.54
2018-08-19T09:54:03.326Z,20.51
2018-08-19T09:56:36.441Z,20.74
2018-08-19T09:59:05.034Z,20.92
2018-08-19T10:01:38.062Z,20.62
2018-08-19T10:04:09.011Z,20.96
2018-08-19T10:06:36.444Z,20.99
2018-08-19T10:09:06.203Z,21.08
2018-08-19T10:11:33.538Z,21.16
2018-08-19T10:14:03.474Z,21.45
2018-08-19T10:16:39.529Z,21.40
2018-08-19T10:19:06.856Z,21.67
2018-08-19T10:21:34.473Z,21.50
2018-08-19T10:24:12.034Z,21.22
2018-08-19T10:26:39.416Z,21.53
2018-08-19T10:29:06.973Z,21.28
2018-08-19T10:31:34.307Z,21.02
2018-08-19T10:34:01.682Z,21.19
2018-08-19T10:36:29.081Z,21.13
2018-08-19T10:38:56.493Z,21.04
2018-08-19T10:41:23.917Z,21.15
2018-08-19T10:43:51.218Z,21.29
2018-08-19T10:46:18.672Z,21.22
2018-08-19T10:48:46.017Z,21.42
2018-08-19T10:51:13.413Z,21.40
2018-08-19T10:53:42.589Z,21.17
2018-08-19T10:56:09.903Z,21.21
2018-08-19T10:58:39.491Z,21.21
2018-08-19T11:01:06.912Z,21.22
2018-08-19T11:03:36.259Z,21.59
2018-08-19T11:06:03.725Z,21.36
2018-08-19T11:08:31.150Z,21.40
2018-08-19T11:10:58.851Z,21.68
2018-08-19T11:13:26.290Z,21.49
2018-08-19T11:15:54.970Z,21.68
2018-08-19T11:18:25.727Z,21.43
2018-08-19T11:20:55.902Z,21.46
2018-08-19T11:23:24.390Z,21.90
2018-08-19T11:25:52.685Z,21.68
2018-08-19T11:28:32.007Z,21.60
2018-08-19T11:30:59.297Z,21.58
2018-08-19T11:33:37.981Z,21.49
2018-08-19T11:36:05.554Z,21.40
2018-08-19T11:38:32.963Z,21.59
2018-08-19T11:41:02.300Z,21.48
2018-08-19T11:43:29.834Z,21.38
2018-08-19T11:45:57.401Z,21.59
2018-08-19T11:48:24.798Z,21.56
2018-08-19T11:53:18.990Z,22.64
2018-08-19T11:55:47.015Z,23.88
2018-08-19T11:58:30.679Z,24.38
2018-08-19T12:01:00.405Z,24.44
2018-08-19T12:03:28.427Z,27.23
2018-08-19T12:05:55.881Z,25.16
2018-08-19T12:08:23.418Z,26.08
2018-08-19T12:10:55.647Z,23.62
2018-08-19T12:13:24.115Z,24.35
2018-08-19T12:15:51.470Z,23.91
2018-08-19T12:18:18.824Z,27.56
2018-08-19T12:20:46.269Z,24.98
2018-08-19T12:23:13.603Z,23.88
2018-08-19T12:25:41.171Z,23.17
2018-08-19T12:28:08.646Z,26.22
2018-08-19T12:30:35.994Z,24.06
2018-08-19T12:33:14.524Z,24.11
2018-08-19T12:35:41.923Z,25.20
2018-08-19T12:38:09.309Z,25.11
2018-08-19T12:40:41.402Z,24.49
2018-08-19T12:43:08.879Z,23.67
2018-08-19T12:45:36.445Z,25.03
2018-08-19T12:48:03.802Z,24.81
2018-08-19T12:50:31.238Z,25.09
2018-08-19T12:52:58.654Z,25.33
2018-08-19T12:55:26.269Z,25.01
2018-08-19T12:58:01.983Z,25.27
2018-08-19T13:00:29.818Z,25.59
2018-08-19T13:02:57.393Z,25.59
2018-08-19T13:05:24.973Z,24.53
2018-08-19T13:07:52.716Z,25.55
2018-08-19T13:10:21.299Z,24.85
2018-08-19T13:12:56.014Z,25.61
2018-08-19T13:15:24.749Z,24.58
2018-08-19T13:17:52.463Z,24.68
2018-08-19T13:20:19.827Z,25.09
2018-08-19T13:23:04.443Z,24.62
2018-08-19T13:25:33.130Z,24.62
2018-08-19T13:28:00.538Z,24.27
2018-08-19T13:30:28.078Z,24.11
2018-08-19T13:32:55.464Z,23.64
2018-08-19T13:35:23.376Z,23.29
2018-08-19T13:37:51.239Z,23.12
2018-08-19T13:40:18.631Z,23.16
2018-08-19T13:42:47.275Z,23.28
2018-08-19T13:45:17.596Z,23.05
2018-08-19T13:47:46.211Z,22.98
2018-08-19T13:50:13.769Z,23.34
2018-08-19T13:52:41.716Z,23.26
2018-08-19T13:55:11.403Z,23.28
2018-08-19T13:57:38.910Z,23.21
2018-08-19T14:00:12.403Z,23.14
2018-08-19T14:02:39.805Z,23.14
2018-08-19T14:05:07.719Z,23.03
2018-08-19T14:07:35.284Z,22.96
2018-08-19T14:10:02.776Z,22.51
2018-08-19T14:12:30.169Z,22.81
2018-08-19T14:14:57.903Z,22.67
2018-08-19T14:17:25.781Z,22.69
2018-08-19T14:19:53.936Z,22.39
2018-08-19T14:22:21.570Z,22.48
2018-08-19T14:24:49.182Z,22.59
2018-08-19T14:27:16.587Z,22.67
2018-08-19T14:29:44.506Z,22.46
2018-08-19T14:32:27.586Z,22.47
2018-08-19T14:34:55.012Z,22.49
2018-08-19T14:37:23.122Z,22.32
2018-08-19T14:39:50.819Z,22.30
2018-08-19T14:42:18.255Z,22.26
2018-08-19T14:44:46.644Z,22.38
2018-08-19T14:47:14.246Z,22.22
2018-08-19T14:49:41.932Z,22.04
2018-08-19T14:52:10.224Z,21.97
2018-08-19T14:54:38.394Z,21.93
2018-08-19T14:57:05.838Z,21.96
2018-08-19T14:59:33.401Z,21.88
2018-08-19T15:02:00.745Z,21.85
2018-08-19T15:04:28.114Z,21.69
2018-08-19T15:06:56.204Z,21.61
2018-08-19T15:09:30.162Z,21.62
2018-08-19T15:12:08.170Z,21.37
2018-08-19T15:14:35.537Z,21.37
2018-08-19T15:17:04.966Z,21.11
2018-08-19T15:19:32.489Z,21.48
2018-08-19T15:21:59.864Z,21.15
2018-08-19T15:24:27.572Z,21.06
2018-08-19T15:26:55.760Z,21.10
2018-08-19T15:29:28.221Z,20.77
2018-08-19T15:31:57.052Z,20.90
2018-08-19T15:34:25.940Z,20.95
2018-08-19T15:36:54.162Z,20.83
2018-08-19T15:39:21.825Z,20.84
2018-08-19T15:41:49.542Z,20.95
2018-08-19T15:44:17.329Z,20.89
2018-08-19T15:46:45.883Z,21.00
2018-08-19T15:49:13.481Z,20.78
2018-08-19T15:51:41.996Z,20.71
2018-08-19T15:54:10.429Z,20.56
2018-08-19T15:56:39.053Z,20.76
2018-08-19T15:59:09.795Z,20.59
2018-08-19T16:01:37.966Z,20.72
2018-08-19T16:04:12.817Z,20.70
2018-08-19T16:06:41.272Z,20.76
2018-08-19T16:09:11.237Z,20.81
2018-08-19T16:11:38.557Z,20.94
2018-08-19T16:14:13.931Z,20.72
2018-08-19T16:16:41.316Z,20.91
2018-08-19T16:19:10.821Z,20.82
2018-08-19T16:21:38.894Z,20.86
2018-08-19T16:24:06.935Z,20.83
2018-08-19T16:26:34.670Z,20.77
2018-08-19T16:29:02.339Z,20.66
2018-08-19T16:31:30.835Z,20.65
2018-08-19T16:33:59.283Z,20.76
2018-08-19T16:36:27.099Z,20.62
2018-08-19T16:38:55.345Z,20.52
2018-08-19T16:41:24.603Z,20.75
2018-08-19T16:43:52.969Z,20.75
2018-08-19T16:46:21.305Z,20.65
2018-08-19T16:48:49.994Z,20.57
2018-08-19T16:51:17.843Z,20.58
2018-08-19T16:53:45.309Z,20.60
2018-08-19T16:56:13.009Z,20.66
2018-08-19T16:58:41.300Z,20.58
2018-08-19T17:01:09.540Z,20.62
2018-08-19T17:03:38.260Z,20.50
2018-08-19T17:06:10.051Z,20.29
2018-08-19T17:08:37.826Z,20.38
2018-08-19T17:11:05.598Z,20.34
2018-08-19T17:13:32.955Z,20.46
2018-08-19T17:16:01.021Z,20.32
2018-08-19T17:18:30.636Z,20.16
2018-08-19T17:20:58.570Z,20.34
2018-08-19T17:23:26.275Z,20.03
2018-08-19T17:25:53.572Z,20.13
2018-08-19T17:28:23.126Z,20.12
2018-08-19T17:30:52.614Z,20.08
2018-08-19T17:33:28.115Z,20.02
2018-08-19T17:35:55.673Z,20.05
2018-08-19T17:38:23.081Z,20.02
2018-08-19T17:40:52.171Z,20.10
2018-08-19T17:43:27.414Z,20.12
2018-08-19T17:45:59.741Z,19.79
2018-08-19T17:48:27.088Z,19.89
2018-08-19T17:50:56.216Z,19.88
2018-08-19T17:53:23.838Z,19.91
2018-08-19T17:55:51.520Z,19.74
2018-08-19T17:58:18.838Z,19.73
2018-08-19T18:00:46.535Z,19.73
2018-08-19T18:03:14.473Z,19.63
2018-08-19T18:05:42.092Z,19.69
2018-08-19T18:08:09.742Z,19.51
2018-08-19T18:10:37.795Z,19.66
2018-08-19T18:13:05.706Z,19.64
2018-08-19T18:15:33.737Z,19.68
2018-08-19T18:18:05.318Z,19.62
2018-08-19T18:20:37.472Z,19.66
2018-08-19T18:23:12.872Z,19.61
2018-08-19T18:25:41.317Z,19.54
2018-08-19T18:28:27.656Z,19.68
2018-08-19T18:31:14.366Z,19.58
2018-08-19T18:33:48.119Z,19.58
2018-08-19T18:36:15.696Z,19.52
2018-08-19T18:38:43.392Z,19.52
2018-08-19T18:41:18.016Z,19.52
2018-08-19T18:43:48.387Z,19.52
2018-08-19T18:46:15.759Z,19.46
2018-08-19T18:48:44.894Z,19.45
2018-08-19T18:51:12.536Z,19.49
2018-08-19T18:53:40.179Z,19.58
2018-08-19T18:56:07.948Z,19.44
2018-08-19T18:58:35.779Z,19.58
2018-08-19T19:01:03.479Z,19.44
2018-08-19T19:03:31.321Z,19.53
2018-08-19T19:05:59.036Z,19.52
2018-08-19T19:08:26.339Z,19.37
2018-08-19T19:11:00.324Z,19.45
2018-08-19T19:13:28.596Z,19.46
2018-08-19T19:15:56.148Z,19.35
2018-08-19T19:18:24.392Z,19.50
2018-08-19T19:20:57.555Z,19.46
2018-08-19T19:23:29.575Z,19.38
2018-08-19T19:25:57.245Z,19.47
2018-08-19T19:28:24.704Z,19.46
2018-08-19T19:31:00.896Z,19.50
2018-08-19T19:33:28.873Z,19.47
2018-08-19T19:36:02.417Z,19.52
2018-08-19T19:38:30.256Z,19.48
2018-08-19T19:41:02.189Z,19.55
2018-08-19T19:43:30.379Z,19.45
2018-08-19T19:45:57.959Z,19.49
2018-08-19T19:48:25.879Z,19.58
2018-08-19T19:50:53.192Z,19.60
2018-08-19T19:53:20.797Z,19.52
2018-08-19T19:55:48.191Z,19.47
2018-08-19T19:58:15.711Z,19.55
2018-08-19T20:00:53.663Z,19.60
2018-08-19T20:03:22.086Z,19.55
2018-08-19T20:05:50.729Z,19.55
2018-08-19T20:08:22.613Z,19.62
2018-08-19T20:10:50.625Z,19.61
2018-08-19T20:13:18.240Z,19.67
2018-08-19T20:15:45.983Z,19.61
2018-08-19T20:18:13.452Z,19.64
2018-08-19T20:20:40.981Z,19.65
2018-08-19T20:23:25.619Z,19.68
2018-08-19T20:25:55.442Z,19.72
2018-08-19T20:28:23.022Z,19.68
2018-08-19T20:30:50.544Z,19.72
2018-08-19T20:33:25.713Z,19.73
2018-08-19T20:35:53.555Z,19.67
2018-08-19T20:38:21.362Z,19.73
2018-08-19T20:40:49.047Z,19.72
2018-08-19T20:43:20.217Z,19.76
2018-08-19T20:45:47.726Z,19.71
2018-08-19T20:48:17.603Z,19.75
2018-08-19T20:50:45.826Z,19.79
2018-08-19T20:53:13.307Z,19.71
2018-08-19T20:55:40.706Z,19.81
2018-08-19T20:58:08.027Z,19.80
2018-08-19T21:00:35.816Z,19.78
2018-08-19T21:03:03.367Z,19.75
2018-08-19T21:05:30.943Z,19.81
2018-08-19T21:08:04.520Z,19.80
2018-08-19T21:10:31.825Z,19.79
2018-08-19T21:12:59.635Z,19.76
2018-08-19T21:15:32.166Z,19.77
2018-08-19T21:18:00.612Z,19.77
2018-08-19T21:20:28.073Z,19.78
2018-08-19T21:22:55.532Z,19.76
2018-08-19T21:25:22.893Z,19.80
2018-08-19T21:27:50.491Z,19.75
2018-08-19T21:30:17.908Z,19.78
2018-08-19T21:32:45.547Z,19.77
2018-08-19T21:35:13.872Z,19.82
2018-08-19T21:37:41.296Z,19.84
2018-08-19T21:40:08.817Z,19.85
2018-08-19T21:42:48.515Z,19.84
2018-08-19T21:45:15.835Z,19.84
2018-08-19T21:47:43.125Z,19.84
2018-08-19T21:50:10.531Z,19.84
2018-08-19T21:53:17.586Z,19.86
2018-08-19T21:55:46.178Z,19.90
2018-08-19T21:58:13.636Z,19.86
2018-08-19T22:00:44.042Z,19.89
2018-08-19T22:03:20.727Z,19.84
2018-08-19T22:05:49.390Z,19.91
2018-08-19T22:08:17.970Z,19.92
2018-08-19T22:10:46.663Z,19.92
2018-08-19T22:13:14.107Z,19.92
2018-08-19T22:15:42.592Z,19.92
2018-08-19T22:18:12.889Z,19.90
2018-08-19T22:20:50.597Z,19.98
2018-08-19T22:23:17.988Z,19.89
2018-08-19T22:25:45.480Z,19.84
2018-08-19T22:28:13.794Z,19.86
2018-08-19T22:30:41.145Z,19.92
2018-08-19T22:33:08.518Z,19.90
2018-08-19T22:35:35.907Z,19.90
2018-08-19T22:38:07.533Z,19.89
2018-08-19T22:40:36.755Z,19.81
2018-08-19T22:43:04.741Z,19.90
2018-08-19T22:45:32.097Z,19.87
2018-08-19T22:47:59.534Z,19.96
2018-08-19T22:50:27.643Z,19.85
2018-08-19T22:52:54.977Z,19.78
2018-08-19T22:55:29.591Z,19.82
2018-08-19T22:58:13.914Z,19.86
2018-08-19T23:00:42.100Z,19.84
2018-08-19T23:03:09.491Z,19.88
2018-08-19T23:05:36.985Z,19.91
2018-08-19T23:08:04.645Z,19.93
2018-08-19T23:10:32.012Z,19.94
2018-08-19T23:13:05.698Z,19.89
2018-08-19T23:15:40.055Z,19.89
2018-08-19T23:18:07.468Z,19.87
2018-08-19T23:20:34.840Z,19.88
2018-08-19T23:23:02.286Z,19.86
2018-08-19T23:25:29.847Z,19.97
2018-08-19T23:27:57.223Z,19.94
2018-08-19T23:30:24.665Z,19.95
2018-08-19T23:32:52.867Z,19.95
2018-08-19T23:35:20.342Z,19.97
2018-08-19T23:37:47.697Z,19.94
2018-08-19T23:40:15.121Z,19.95
2018-08-19T23:42:42.795Z,19.95
2018-08-19T23:45:10.225Z,20.03
2018-08-19T23:47:37.627Z,20.02
2018-08-19T23:50:05.376Z,20.02
2018-08-19T23:52:32.680Z,20.02
2018-08-19T23:55:00.019Z,19.95
2018-08-19T23:57:28.072Z,20.01
2018-08-19T23:59:55.477Z,19.98
